sensor_id;sensor_type;location;lat;lon;timestamp;temperature;humidity
71096;DHT22;58753;49.440;11.126;2023-05-07T00:00:00;11.70;82.31
71096;DHT22;58753;49.440;11.126;2023-05-07T00:02:26;11.67;82.37
71096;DHT22;58753;49.440;11.126;2023-05-07T00:04:51;11.71;82.57
71096;DHT22;58753;49.440;11.126;2023-05-07T00:07:17;11.73;82.52
71096;DHT22;58753;49.440;11.126;2023-05-07T00:09:43;11.74;82.50
71096;DHT22;58753;49.440;11.126;2023-05-07T00:12:08;11.74;82.50
71096;DHT22;58753;49.440;11.126;2023-05-07T00:14:34;11.77;82.62
71096;DHT22;58753;49.440;11.126;2023-05-07T00:17:00;11.77;82.59
71096;DHT22;58753;49.440;11.126;2023-05-07T00:19:25;11.79;82.82
71096;DHT22;58753;49.440;11.126;2023-05-07T00:21:50;11.83;82.78
71096;DHT22;58753;49.440;11.126;2023-05-07T00:24:18;11.80;82.70
71096;DHT22;58753;49.440;11.126;2023-05-07T00:26:44;11.83;82.78
71096;DHT22;58753;49.440;11.126;2023-05-07T00:29:09;11.87;82.86
71096;DHT22;58753;49.440;11.126;2023-05-07T00:31:34;11.87;82.71
71096;DHT22;58753;49.440;11.126;2023-05-07T00:34:00;11.90;82.75
71096;DHT22;58753;49.440;11.126;2023-05-07T00:36:25;11.90;82.64
71096;DHT22;58753;49.440;11.126;2023-05-07T00:38:51;11.91;82.78
71096;DHT22;58753;49.440;11.126;2023-05-07T00:41:16;11.90;82.75
71096;DHT22;58753;49.440;11.126;2023-05-07T00:43:42;11.90;82.74
71096;DHT22;58753;49.440;11.126;2023-05-07T00:46:08;11.93;82.93
71096;DHT22;58753;49.440;11.126;2023-05-07T00:48:33;11.91;82.99
71096;DHT22;58753;49.440;11.126;2023-05-07T00:50:59;11.93;83.00
71096;DHT22;58753;49.440;11.126;2023-05-07T00:53:24;11.93;82.99
71096;DHT22;58753;49.440;11.126;2023-05-07T00:55:50;11.94;83.13
71096;DHT22;58753;49.440;11.126;2023-05-07T00:58:16;11.93;83.05
71096;DHT22;58753;49.440;11.126;2023-05-07T01:00:42;11.94;83.27
71096;DHT22;58753;49.440;11.126;2023-05-07T01:03:07;11.93;83.20
71096;DHT22;58753;49.440;11.126;2023-05-07T01:05:33;11.94;83.19
71096;DHT22;58753;49.440;11.126;2023-05-07T01:07:59;11.93;83.39
71096;DHT22;58753;49.440;11.126;2023-05-07T01:10:25;11.93;83.32
71096;DHT22;58753;49.440;11.126;2023-05-07T01:12:51;11.93;83.44
71096;DHT22;58753;49.440;11.126;2023-05-07T01:15:17;11.97;83.62
71096;DHT22;58753;49.440;11.126;2023-05-07T01:17:43;11.94;83.52
71096;DHT22;58753;49.440;11.126;2023-05-07T01:20:09;11.97;83.62
71096;DHT22;58753;49.440;11.126;2023-05-07T01:22:37;11.95;83.56
71096;DHT22;58753;49.440;11.126;2023-05-07T01:25:03;11.95;83.57
71096;DHT22;58753;49.440;11.126;2023-05-07T01:27:29;11.94;83.62
71096;DHT22;58753;49.440;11.126;2023-05-07T01:29:55;11.94;83.70
71096;DHT22;58753;49.440;11.126;2023-05-07T01:32:25;11.95;83.67
71096;DHT22;58753;49.440;11.126;2023-05-07T01:34:53;11.94;83.71
71096;DHT22;58753;49.440;11.126;2023-05-07T01:37:19;11.98;84.01
71096;DHT22;58753;49.440;11.126;2023-05-07T01:39:46;12.01;83.95
71096;DHT22;58753;49.440;11.126;2023-05-07T01:42:12;12.01;84.00
71096;DHT22;58753;49.440;11.126;2023-05-07T01:44:38;12.02;83.99
71096;DHT22;58753;49.440;11.126;2023-05-07T01:47:03;12.02;83.91
71096;DHT22;58753;49.440;11.126;2023-05-07T01:49:29;12.04;83.97
71096;DHT22;58753;49.440;11.126;2023-05-07T01:51:55;12.01;83.95
71096;DHT22;58753;49.440;11.126;2023-05-07T01:54:25;12.02;83.95
71096;DHT22;58753;49.440;11.126;2023-05-07T01:56:52;11.97;83.95
71096;DHT22;58753;49.440;11.126;2023-05-07T01:59:18;11.98;84.08
71096;DHT22;58753;49.440;11.126;2023-05-07T02:01:43;11.97;84.14
71096;DHT22;58753;49.440;11.126;2023-05-07T02:04:09;11.98;84.14
71096;DHT22;58753;49.440;11.126;2023-05-07T02:06:34;11.98;84.22
71096;DHT22;58753;49.440;11.126;2023-05-07T02:09:00;12.00;84.24
71096;DHT22;58753;49.440;11.126;2023-05-07T02:11:25;11.97;84.14
71096;DHT22;58753;49.440;11.126;2023-05-07T02:13:50;12.00;84.17
71096;DHT22;58753;49.440;11.126;2023-05-07T02:16:16;11.98;84.32
71096;DHT22;58753;49.440;11.126;2023-05-07T02:18:41;11.98;84.31
71096;DHT22;58753;49.440;11.126;2023-05-07T02:21:07;11.97;84.30
71096;DHT22;58753;49.440;11.126;2023-05-07T02:23:32;11.95;84.38
71096;DHT22;58753;49.440;11.126;2023-05-07T02:25:58;11.97;84.38
71096;DHT22;58753;49.440;11.126;2023-05-07T02:28:23;11.94;84.39
71096;DHT22;58753;49.440;11.126;2023-05-07T02:30:48;11.93;84.35
71096;DHT22;58753;49.440;11.126;2023-05-07T02:33:14;11.91;84.30
71096;DHT22;58753;49.440;11.126;2023-05-07T02:35:39;11.86;84.44
71096;DHT22;58753;49.440;11.126;2023-05-07T02:38:05;11.81;84.50
71096;DHT22;58753;49.440;11.126;2023-05-07T02:40:30;11.77;84.57
71096;DHT22;58753;49.440;11.126;2023-05-07T02:42:59;11.73;84.66
71096;DHT22;58753;49.440;11.126;2023-05-07T02:45:24;11.69;84.75
71096;DHT22;58753;49.440;11.126;2023-05-07T02:47:50;11.65;84.75
71096;DHT22;58753;49.440;11.126;2023-05-07T02:50:16;11.59;84.80
71096;DHT22;58753;49.440;11.126;2023-05-07T02:52:41;11.55;84.88
71096;DHT22;58753;49.440;11.126;2023-05-07T02:55:07;11.52;85.10
71096;DHT22;58753;49.440;11.126;2023-05-07T02:57:33;11.52;85.25
71096;DHT22;58753;49.440;11.126;2023-05-07T02:59:58;11.46;85.22
71096;DHT22;58753;49.440;11.126;2023-05-07T03:02:24;11.44;85.34
71096;DHT22;58753;49.440;11.126;2023-05-07T03:04:49;11.42;85.26
71096;DHT22;58753;49.440;11.126;2023-05-07T03:07:15;11.36;85.35
71096;DHT22;58753;49.440;11.126;2023-05-07T03:09:40;11.35;85.29
71096;DHT22;58753;49.440;11.126;2023-05-07T03:12:06;11.30;85.46
71096;DHT22;58753;49.440;11.126;2023-05-07T03:14:31;11.29;85.48
71096;DHT22;58753;49.440;11.126;2023-05-07T03:16:57;11.25;85.53
71096;DHT22;58753;49.440;11.126;2023-05-07T03:19:22;11.20;85.52
71096;DHT22;58753;49.440;11.126;2023-05-07T03:21:48;11.19;85.64
71096;DHT22;58753;49.440;11.126;2023-05-07T03:24:13;11.16;85.56
71096;DHT22;58753;49.440;11.126;2023-05-07T03:26:39;11.11;85.72
71096;DHT22;58753;49.440;11.126;2023-05-07T03:29:04;11.11;85.67
71096;DHT22;58753;49.440;11.126;2023-05-07T03:31:30;11.05;85.62
71096;DHT22;58753;49.440;11.126;2023-05-07T03:33:57;11.01;85.72
71096;DHT22;58753;49.440;11.126;2023-05-07T03:36:23;10.96;85.67
71096;DHT22;58753;49.440;11.126;2023-05-07T03:38:49;10.92;85.69
71096;DHT22;58753;49.440;11.126;2023-05-07T03:41:15;10.89;85.92
71096;DHT22;58753;49.440;11.126;2023-05-07T03:43:40;10.88;86.07
71096;DHT22;58753;49.440;11.126;2023-05-07T03:46:06;10.85;86.02
71096;DHT22;58753;49.440;11.126;2023-05-07T03:48:31;10.82;86.15
71096;DHT22;58753;49.440;11.126;2023-05-07T03:50:57;10.78;86.17
71096;DHT22;58753;49.440;11.126;2023-05-07T03:53:23;10.79;86.40
71096;DHT22;58753;49.440;11.126;2023-05-07T03:55:48;10.74;86.30
71096;DHT22;58753;49.440;11.126;2023-05-07T03:58:15;10.71;86.38
71096;DHT22;58753;49.440;11.126;2023-05-07T04:00:40;10.68;86.43
71096;DHT22;58753;49.440;11.126;2023-05-07T04:03:06;10.64;86.41
71096;DHT22;58753;49.440;11.126;2023-05-07T04:05:31;10.63;86.44
71096;DHT22;58753;49.440;11.126;2023-05-07T04:08:00;10.60;86.42
71096;DHT22;58753;49.440;11.126;2023-05-07T04:10:29;10.58;86.73
71096;DHT22;58753;49.440;11.126;2023-05-07T04:12:55;10.57;86.60
71096;DHT22;58753;49.440;11.126;2023-05-07T04:15:20;10.53;86.41
71096;DHT22;58753;49.440;11.126;2023-05-07T04:17:45;10.54;86.78
71096;DHT22;58753;49.440;11.126;2023-05-07T04:20:15;10.53;86.83
71096;DHT22;58753;49.440;11.126;2023-05-07T04:22:41;10.57;86.99
71096;DHT22;58753;49.440;11.126;2023-05-07T04:25:07;10.55;86.83
71096;DHT22;58753;49.440;11.126;2023-05-07T04:27:34;10.57;86.95
71096;DHT22;58753;49.440;11.126;2023-05-07T04:29:59;10.58;87.03
71096;DHT22;58753;49.440;11.126;2023-05-07T04:32:26;10.65;87.01
71096;DHT22;58753;49.440;11.126;2023-05-07T04:34:51;10.69;87.05
71096;DHT22;58753;49.440;11.126;2023-05-07T04:37:16;10.76;87.16
71096;DHT22;58753;49.440;11.126;2023-05-07T04:39:42;10.79;87.09
71096;DHT22;58753;49.440;11.126;2023-05-07T04:42:07;10.88;87.04
71096;DHT22;58753;49.440;11.126;2023-05-07T04:44:34;10.88;86.78
71096;DHT22;58753;49.440;11.126;2023-05-07T04:47:00;10.91;86.70
71096;DHT22;58753;49.440;11.126;2023-05-07T04:49:26;10.96;86.78
71096;DHT22;58753;49.440;11.126;2023-05-07T04:51:51;11.04;86.73
71096;DHT22;58753;49.440;11.126;2023-05-07T04:54:17;11.11;86.82
71096;DHT22;58753;49.440;11.126;2023-05-07T04:56:42;11.18;86.84
71096;DHT22;58753;49.440;11.126;2023-05-07T04:59:08;11.23;86.64
71096;DHT22;58753;49.440;11.126;2023-05-07T05:01:33;11.32;86.57
71096;DHT22;58753;49.440;11.126;2023-05-07T05:03:58;11.42;86.47
71096;DHT22;58753;49.440;11.126;2023-05-07T05:06:25;11.52;86.33
71096;DHT22;58753;49.440;11.126;2023-05-07T05:08:51;11.57;86.29
71096;DHT22;58753;49.440;11.126;2023-05-07T05:11:16;11.62;86.27
71096;DHT22;58753;49.440;11.126;2023-05-07T05:13:41;11.71;86.14
71096;DHT22;58753;49.440;11.126;2023-05-07T05:16:07;11.83;86.13
71096;DHT22;58753;49.440;11.126;2023-05-07T05:18:32;11.93;86.11
71096;DHT22;58753;49.440;11.126;2023-05-07T05:20:58;12.05;85.92
71096;DHT22;58753;49.440;11.126;2023-05-07T05:23:23;12.18;85.72
71096;DHT22;58753;49.440;11.126;2023-05-07T05:25:49;12.22;85.11
71096;DHT22;58753;49.440;11.126;2023-05-07T05:28:14;12.34;84.94
71096;DHT22;58753;49.440;11.126;2023-05-07T05:30:40;12.42;84.61
71096;DHT22;58753;49.440;11.126;2023-05-07T05:33:05;12.51;84.30
71096;DHT22;58753;49.440;11.126;2023-05-07T05:35:31;12.56;83.86
71096;DHT22;58753;49.440;11.126;2023-05-07T05:37:57;12.63;83.56
71096;DHT22;58753;49.440;11.126;2023-05-07T05:40:22;12.72;83.33
71096;DHT22;58753;49.440;11.126;2023-05-07T05:42:47;12.81;83.21
71096;DHT22;58753;49.440;11.126;2023-05-07T05:45:13;12.91;83.14
71096;DHT22;58753;49.440;11.126;2023-05-07T05:47:38;12.96;82.92
71096;DHT22;58753;49.440;11.126;2023-05-07T05:50:06;12.99;82.49
71096;DHT22;58753;49.440;11.126;2023-05-07T05:52:31;13.06;82.55
71096;DHT22;58753;49.440;11.126;2023-05-07T05:54:57;13.10;82.20
71096;DHT22;58753;49.440;11.126;2023-05-07T05:57:22;13.17;82.22
71096;DHT22;58753;49.440;11.126;2023-05-07T05:59:48;13.19;81.97
71096;DHT22;58753;49.440;11.126;2023-05-07T06:02:13;13.23;81.97
71096;DHT22;58753;49.440;11.126;2023-05-07T06:04:39;13.26;81.71
71096;DHT22;58753;49.440;11.126;2023-05-07T06:07:04;13.30;81.56
71096;DHT22;58753;49.440;11.126;2023-05-07T06:09:30;13.35;81.35
71096;DHT22;58753;49.440;11.126;2023-05-07T06:11:59;13.37;81.24
71096;DHT22;58753;49.440;11.126;2023-05-07T06:14:24;13.44;81.08
71096;DHT22;58753;49.440;11.126;2023-05-07T06:16:50;13.51;81.05
71096;DHT22;58753;49.440;11.126;2023-05-07T06:19:15;13.56;80.86
71096;DHT22;58753;49.440;11.126;2023-05-07T06:21:43;13.64;80.86
71096;DHT22;58753;49.440;11.126;2023-05-07T06:24:08;13.70;80.54
71096;DHT22;58753;49.440;11.126;2023-05-07T06:26:34;13.73;80.35
71096;DHT22;58753;49.440;11.126;2023-05-07T06:28:59;13.81;80.30
71096;DHT22;58753;49.440;11.126;2023-05-07T06:31:29;13.85;80.00
71096;DHT22;58753;49.440;11.126;2023-05-07T06:33:56;13.85;79.82
71096;DHT22;58753;49.440;11.126;2023-05-07T06:36:21;13.95;79.78
71096;DHT22;58753;49.440;11.126;2023-05-07T06:38:47;14.01;79.39
71096;DHT22;58753;49.440;11.126;2023-05-07T06:41:12;14.05;79.03
71096;DHT22;58753;49.440;11.126;2023-05-07T06:43:37;14.14;79.37
71096;DHT22;58753;49.440;11.126;2023-05-07T06:46:03;14.19;79.22
71096;DHT22;58753;49.440;11.126;2023-05-07T06:48:28;14.29;79.26
71096;DHT22;58753;49.440;11.126;2023-05-07T06:50:54;14.36;79.02
71096;DHT22;58753;49.440;11.126;2023-05-07T06:53:21;14.36;78.23
71096;DHT22;58753;49.440;11.126;2023-05-07T06:55:46;14.39;78.64
71096;DHT22;58753;49.440;11.126;2023-05-07T06:58:11;14.51;78.73
71096;DHT22;58753;49.440;11.126;2023-05-07T07:00:37;14.61;78.68
71096;DHT22;58753;49.440;11.126;2023-05-07T07:03:02;14.70;78.51
71096;DHT22;58753;49.440;11.126;2023-05-07T07:05:28;14.82;78.60
71096;DHT22;58753;49.440;11.126;2023-05-07T07:07:53;14.93;78.31
71096;DHT22;58753;49.440;11.126;2023-05-07T07:10:19;15.03;78.13
71096;DHT22;58753;49.440;11.126;2023-05-07T07:12:45;15.16;77.98
71096;DHT22;58753;49.440;11.126;2023-05-07T07:15:10;15.26;77.69
71096;DHT22;58753;49.440;11.126;2023-05-07T07:17:36;15.24;76.89
71096;DHT22;58753;49.440;11.126;2023-05-07T07:20:02;15.31;76.93
71096;DHT22;58753;49.440;11.126;2023-05-07T07:22:28;15.34;76.31
71096;DHT22;58753;49.440;11.126;2023-05-07T07:24:53;15.43;76.57
71096;DHT22;58753;49.440;11.126;2023-05-07T07:27:19;15.43;76.29
71096;DHT22;58753;49.440;11.126;2023-05-07T07:29:44;15.51;75.92
71096;DHT22;58753;49.440;11.126;2023-05-07T07:32:10;15.57;75.34
71096;DHT22;58753;49.440;11.126;2023-05-07T07:34:35;15.74;75.72
71096;DHT22;58753;49.440;11.126;2023-05-07T07:37:01;15.91;75.57
71096;DHT22;58753;49.440;11.126;2023-05-07T07:39:30;16.02;74.58
71096;DHT22;58753;49.440;11.126;2023-05-07T07:41:56;16.12;74.71
71096;DHT22;58753;49.440;11.126;2023-05-07T07:44:22;16.20;74.16
71096;DHT22;58753;49.440;11.126;2023-05-07T07:46:47;16.29;74.10
71096;DHT22;58753;49.440;11.126;2023-05-07T07:49:12;16.29;73.24
71096;DHT22;58753;49.440;11.126;2023-05-07T07:51:38;16.32;73.35
71096;DHT22;58753;49.440;11.126;2023-05-07T07:54:04;16.45;73.34
71096;DHT22;58753;49.440;11.126;2023-05-07T07:56:29;16.55;72.64
71096;DHT22;58753;49.440;11.126;2023-05-07T07:58:54;16.53;72.56
71096;DHT22;58753;49.440;11.126;2023-05-07T08:01:20;16.64;72.54
71096;DHT22;58753;49.440;11.126;2023-05-07T08:03:45;16.77;72.65
71096;DHT22;58753;49.440;11.126;2023-05-07T08:06:11;16.84;72.25
71096;DHT22;58753;49.440;11.126;2023-05-07T08:08:36;16.93;72.10
71096;DHT22;58753;49.440;11.126;2023-05-07T08:11:01;16.94;71.91
71096;DHT22;58753;49.440;11.126;2023-05-07T08:13:27;16.95;71.64
71096;DHT22;58753;49.440;11.126;2023-05-07T08:15:52;17.00;71.19
71096;DHT22;58753;49.440;11.126;2023-05-07T08:18:18;17.00;71.35
71096;DHT22;58753;49.440;11.126;2023-05-07T08:20:43;17.04;71.18
71096;DHT22;58753;49.440;11.126;2023-05-07T08:23:09;17.07;70.57
71096;DHT22;58753;49.440;11.126;2023-05-07T08:25:34;17.08;70.68
71096;DHT22;58753;49.440;11.126;2023-05-07T08:28:00;17.10;70.52
71096;DHT22;58753;49.440;11.126;2023-05-07T08:30:26;17.13;70.32
71096;DHT22;58753;49.440;11.126;2023-05-07T08:32:51;17.24;70.46
71096;DHT22;58753;49.440;11.126;2023-05-07T08:35:16;17.27;69.97
71096;DHT22;58753;49.440;11.126;2023-05-07T08:37:42;17.27;69.74
71096;DHT22;58753;49.440;11.126;2023-05-07T08:40:07;17.27;69.79
71096;DHT22;58753;49.440;11.126;2023-05-07T08:42:35;17.27;69.56
71096;DHT22;58753;49.440;11.126;2023-05-07T08:45:04;17.44;70.00
71096;DHT22;58753;49.440;11.126;2023-05-07T08:47:38;17.58;69.98
71096;DHT22;58753;49.440;11.126;2023-05-07T08:50:04;17.66;68.88
71096;DHT22;58753;49.440;11.126;2023-05-07T08:52:31;17.78;68.65
71096;DHT22;58753;49.440;11.126;2023-05-07T08:54:57;17.85;66.52
71096;DHT22;58753;49.440;11.126;2023-05-07T08:57:23;17.95;66.60
71096;DHT22;58753;49.440;11.126;2023-05-07T08:59:49;18.10;66.32
71096;DHT22;58753;49.440;11.126;2023-05-07T09:02:15;18.22;65.55
71096;DHT22;58753;49.440;11.126;2023-05-07T09:04:41;18.34;64.96
71096;DHT22;58753;49.440;11.126;2023-05-07T09:07:07;18.46;64.14
71096;DHT22;58753;49.440;11.126;2023-05-07T09:09:33;18.63;64.25
71096;DHT22;58753;49.440;11.126;2023-05-07T09:11:59;18.77;63.13
71096;DHT22;58753;49.440;11.126;2023-05-07T09:14:25;18.80;62.44
71096;DHT22;58753;49.440;11.126;2023-05-07T09:16:52;18.72;61.71
71096;DHT22;58753;49.440;11.126;2023-05-07T09:19:25;18.72;61.74
71096;DHT22;58753;49.440;11.126;2023-05-07T09:22:01;18.67;61.51
71096;DHT22;58753;49.440;11.126;2023-05-07T09:24:28;18.74;62.00
71096;DHT22;58753;49.440;11.126;2023-05-07T09:26:57;18.85;62.06
71096;DHT22;58753;49.440;11.126;2023-05-07T09:29:23;18.98;62.04
71096;DHT22;58753;49.440;11.126;2023-05-07T09:31:48;19.11;61.34
71096;DHT22;58753;49.440;11.126;2023-05-07T09:34:14;19.21;60.51
71096;DHT22;58753;49.440;11.126;2023-05-07T09:36:39;19.33;60.35
71096;DHT22;58753;49.440;11.126;2023-05-07T09:39:05;19.45;59.57
71096;DHT22;58753;49.440;11.126;2023-05-07T09:41:30;19.49;59.24
71096;DHT22;58753;49.440;11.126;2023-05-07T09:43:59;19.59;59.20
71096;DHT22;58753;49.440;11.126;2023-05-07T09:46:30;19.67;59.13
71096;DHT22;58753;49.440;11.126;2023-05-07T09:49:01;19.79;59.00
71096;DHT22;58753;49.440;11.126;2023-05-07T09:51:35;20.01;58.59
71096;DHT22;58753;49.440;11.126;2023-05-07T09:54:04;20.21;57.43
71096;DHT22;58753;49.440;11.126;2023-05-07T09:56:30;20.38;56.95
71096;DHT22;58753;49.440;11.126;2023-05-07T09:58:59;20.58;57.33
71096;DHT22;58753;49.440;11.126;2023-05-07T10:01:26;20.63;56.98
71096;DHT22;58753;49.440;11.126;2023-05-07T10:03:53;20.75;56.73
71096;DHT22;58753;49.440;11.126;2023-05-07T10:06:20;20.88;56.24
71096;DHT22;58753;49.440;11.126;2023-05-07T10:08:45;21.00;55.40
71096;DHT22;58753;49.440;11.126;2023-05-07T10:11:12;21.13;54.86
71096;DHT22;58753;49.440;11.126;2023-05-07T10:13:37;21.22;54.17
71096;DHT22;58753;49.440;11.126;2023-05-07T10:16:04;21.03;53.15
71096;DHT22;58753;49.440;11.126;2023-05-07T10:18:33;20.84;52.28
71096;DHT22;58753;49.440;11.126;2023-05-07T10:21:13;20.64;52.78
71096;DHT22;58753;49.440;11.126;2023-05-07T10:23:45;20.58;53.14
71096;DHT22;58753;49.440;11.126;2023-05-07T10:26:11;20.51;53.01
71096;DHT22;58753;49.440;11.126;2023-05-07T10:28:41;20.47;53.18
71096;DHT22;58753;49.440;11.126;2023-05-07T10:31:35;20.44;53.52
71096;DHT22;58753;49.440;11.126;2023-05-07T10:34:08;20.41;53.67
71096;DHT22;58753;49.440;11.126;2023-05-07T10:36:35;20.38;54.00
71096;DHT22;58753;49.440;11.126;2023-05-07T10:39:01;20.37;54.38
71096;DHT22;58753;49.440;11.126;2023-05-07T10:41:27;20.33;55.03
71096;DHT22;58753;49.440;11.126;2023-05-07T10:43:52;20.45;56.19
71096;DHT22;58753;49.440;11.126;2023-05-07T10:46:20;20.89;56.75
71096;DHT22;58753;49.440;11.126;2023-05-07T10:49:06;20.91;55.79
71096;DHT22;58753;49.440;11.126;2023-05-07T10:51:32;20.82;54.98
71096;DHT22;58753;49.440;11.126;2023-05-07T10:56:40;20.77;54.48
71096;DHT22;58753;49.440;11.126;2023-05-07T11:01:59;20.69;52.94
71096;DHT22;58753;49.440;11.126;2023-05-07T11:04:25;20.65;53.30
71096;DHT22;58753;49.440;11.126;2023-05-07T11:09:58;20.52;54.03
71096;DHT22;58753;49.440;11.126;2023-05-07T11:15:10;20.45;54.95
71096;DHT22;58753;49.440;11.126;2023-05-07T11:17:53;20.34;55.37
71096;DHT22;58753;49.440;11.126;2023-05-07T11:20:19;20.26;55.88
71096;DHT22;58753;49.440;11.126;2023-05-07T11:22:46;20.21;55.99
71096;DHT22;58753;49.440;11.126;2023-05-07T11:25:17;20.38;56.83
71096;DHT22;58753;49.440;11.126;2023-05-07T11:27:44;20.52;56.51
71096;DHT22;58753;49.440;11.126;2023-05-07T11:30:10;20.68;56.67
71096;DHT22;58753;49.440;11.126;2023-05-07T11:32:36;20.71;56.34
71096;DHT22;58753;49.440;11.126;2023-05-07T11:35:02;20.75;56.04
71096;DHT22;58753;49.440;11.126;2023-05-07T11:37:28;20.99;56.18
71096;DHT22;58753;49.440;11.126;2023-05-07T11:40:04;21.73;56.70
71096;DHT22;58753;49.440;11.126;2023-05-07T11:42:33;22.28;54.86
71096;DHT22;58753;49.440;11.126;2023-05-07T11:45:00;22.78;53.03
71096;DHT22;58753;49.440;11.126;2023-05-07T11:47:25;23.13;49.98
71096;DHT22;58753;49.440;11.126;2023-05-07T11:49:53;23.43;49.94
71096;DHT22;58753;49.440;11.126;2023-05-07T11:52:20;23.75;48.80
71096;DHT22;58753;49.440;11.126;2023-05-07T11:54:51;23.90;47.18
71096;DHT22;58753;49.440;11.126;2023-05-07T11:57:16;24.22;47.67
71096;DHT22;58753;49.440;11.126;2023-05-07T11:59:42;24.35;46.94
71096;DHT22;58753;49.440;11.126;2023-05-07T12:02:10;24.42;45.70
71096;DHT22;58753;49.440;11.126;2023-05-07T12:04:35;24.69;47.08
71096;DHT22;58753;49.440;11.126;2023-05-07T12:07:01;24.68;46.21
71096;DHT22;58753;49.440;11.126;2023-05-07T12:09:26;24.62;44.69
71096;DHT22;58753;49.440;11.126;2023-05-07T12:11:52;24.82;45.31
71096;DHT22;58753;49.440;11.126;2023-05-07T12:14:18;25.00;45.36
71096;DHT22;58753;49.440;11.126;2023-05-07T12:16:44;24.80;43.53
71096;DHT22;58753;49.440;11.126;2023-05-07T12:19:11;24.39;44.44
71096;DHT22;58753;49.440;11.126;2023-05-07T12:21:40;24.26;45.16
71096;DHT22;58753;49.440;11.126;2023-05-07T12:24:06;23.96;44.96
71096;DHT22;58753;49.440;11.126;2023-05-07T12:26:37;23.81;45.13
71096;DHT22;58753;49.440;11.126;2023-05-07T12:29:03;23.59;45.44
71096;DHT22;58753;49.440;11.126;2023-05-07T12:31:28;23.36;45.61
71096;DHT22;58753;49.440;11.126;2023-05-07T12:33:54;23.17;46.24
71096;DHT22;58753;49.440;11.126;2023-05-07T12:36:20;22.99;46.65
71096;DHT22;58753;49.440;11.126;2023-05-07T12:38:49;22.79;46.85
71096;DHT22;58753;49.440;11.126;2023-05-07T12:41:15;22.76;47.65
71096;DHT22;58753;49.440;11.126;2023-05-07T12:43:44;22.94;47.35
71096;DHT22;58753;49.440;11.126;2023-05-07T12:46:09;22.84;47.45
71096;DHT22;58753;49.440;11.126;2023-05-07T12:48:41;22.71;47.80
71096;DHT22;58753;49.440;11.126;2023-05-07T12:51:08;22.66;47.62
71096;DHT22;58753;49.440;11.126;2023-05-07T12:53:40;22.71;48.09
71096;DHT22;58753;49.440;11.126;2023-05-07T12:56:07;23.53;48.91
71096;DHT22;58753;49.440;11.126;2023-05-07T12:58:34;23.40;47.13
71096;DHT22;58753;49.440;11.126;2023-05-07T13:01:05;23.19;46.49
71096;DHT22;58753;49.440;11.126;2023-05-07T13:03:36;23.03;46.37
71096;DHT22;58753;49.440;11.126;2023-05-07T13:06:03;22.89;46.94
71096;DHT22;58753;49.440;11.126;2023-05-07T13:08:31;22.78;47.41
71096;DHT22;58753;49.440;11.126;2023-05-07T13:10:59;22.72;47.73
71096;DHT22;58753;49.440;11.126;2023-05-07T13:13:26;22.78;47.61
71096;DHT22;58753;49.440;11.126;2023-05-07T13:15:51;22.76;47.74
71096;DHT22;58753;49.440;11.126;2023-05-07T13:18:17;22.64;47.67
71096;DHT22;58753;49.440;11.126;2023-05-07T13:20:43;22.55;47.66
71096;DHT22;58753;49.440;11.126;2023-05-07T13:23:08;22.47;48.21
71096;DHT22;58753;49.440;11.126;2023-05-07T13:25:34;22.31;47.98
71096;DHT22;58753;49.440;11.126;2023-05-07T13:27:59;22.17;48.11
71096;DHT22;58753;49.440;11.126;2023-05-07T13:30:25;22.13;48.42
71096;DHT22;58753;49.440;11.126;2023-05-07T13:32:51;22.07;48.51
71096;DHT22;58753;49.440;11.126;2023-05-07T13:35:17;22.03;48.81
71096;DHT22;58753;49.440;11.126;2023-05-07T13:37:42;22.00;48.62
71096;DHT22;58753;49.440;11.126;2023-05-07T13:40:08;21.97;48.31
71096;DHT22;58753;49.440;11.126;2023-05-07T13:42:33;22.03;48.10
71096;DHT22;58753;49.440;11.126;2023-05-07T13:44:59;22.03;48.23
71096;DHT22;58753;49.440;11.126;2023-05-07T13:47:25;21.97;48.37
71096;DHT22;58753;49.440;11.126;2023-05-07T13:49:50;21.93;48.91
71096;DHT22;58753;49.440;11.126;2023-05-07T13:52:16;21.83;49.07
71096;DHT22;58753;49.440;11.126;2023-05-07T13:54:42;21.87;49.50
71096;DHT22;58753;49.440;11.126;2023-05-07T13:57:07;21.84;49.63
71096;DHT22;58753;49.440;11.126;2023-05-07T13:59:33;21.77;49.79
71096;DHT22;58753;49.440;11.126;2023-05-07T14:01:59;21.80;50.31
71096;DHT22;58753;49.440;11.126;2023-05-07T14:04:25;21.90;50.47
71096;DHT22;58753;49.440;11.126;2023-05-07T14:06:50;21.96;50.38
71096;DHT22;58753;49.440;11.126;2023-05-07T14:09:16;22.40;51.92
71096;DHT22;58753;49.440;11.126;2023-05-07T14:11:42;23.26;51.00
71096;DHT22;58753;49.440;11.126;2023-05-07T14:14:07;23.85;49.56
71096;DHT22;58753;49.440;11.126;2023-05-07T14:16:35;24.33;47.62
71096;DHT22;58753;49.440;11.126;2023-05-07T14:19:01;24.68;45.97
71096;DHT22;58753;49.440;11.126;2023-05-07T14:21:26;24.77;45.04
71096;DHT22;58753;49.440;11.126;2023-05-07T14:23:52;24.68;43.55
71096;DHT22;58753;49.440;11.126;2023-05-07T14:26:17;24.90;43.74
71096;DHT22;58753;49.440;11.126;2023-05-07T14:28:43;25.09;43.33
71096;DHT22;58753;49.440;11.126;2023-05-07T14:31:11;24.59;41.33
71096;DHT22;58753;49.440;11.126;2023-05-07T14:33:37;24.21;41.68
71096;DHT22;58753;49.440;11.126;2023-05-07T14:36:03;24.11;42.69
71096;DHT22;58753;49.440;11.126;2023-05-07T14:38:28;24.28;43.30
71096;DHT22;58753;49.440;11.126;2023-05-07T14:40:54;24.36;44.21
71096;DHT22;58753;49.440;11.126;2023-05-07T14:43:21;24.52;44.17
71096;DHT22;58753;49.440;11.126;2023-05-07T14:45:47;24.28;43.63
71096;DHT22;58753;49.440;11.126;2023-05-07T14:48:12;23.75;43.38
71096;DHT22;58753;49.440;11.126;2023-05-07T14:50:41;23.37;44.32
71096;DHT22;58753;49.440;11.126;2023-05-07T14:53:06;23.06;45.29
71096;DHT22;58753;49.440;11.126;2023-05-07T14:55:32;22.71;45.48
71096;DHT22;58753;49.440;11.126;2023-05-07T14:57:57;22.43;46.35
71096;DHT22;58753;49.440;11.126;2023-05-07T15:00:23;22.24;46.84
71096;DHT22;58753;49.440;11.126;2023-05-07T15:02:48;22.15;47.37
71096;DHT22;58753;49.440;11.126;2023-05-07T15:05:14;22.01;47.73
71096;DHT22;58753;49.440;11.126;2023-05-07T15:07:40;21.89;48.22
71096;DHT22;58753;49.440;11.126;2023-05-07T15:10:05;21.79;48.40
71096;DHT22;58753;49.440;11.126;2023-05-07T15:12:31;21.74;49.07
71096;DHT22;58753;49.440;11.126;2023-05-07T15:14:56;21.66;49.13
71096;DHT22;58753;49.440;11.126;2023-05-07T15:17:22;21.53;49.32
71096;DHT22;58753;49.440;11.126;2023-05-07T15:19:48;21.40;49.40